Pagina principale
METAR-TAF:

METAR-TAF

Aeroporti :

Aeroporto Internazionale di Hong Kong

Hong Kong, Cina

latitudine: 22-19N, longitudine: 113-55E, altezza: 9 m

Osservazione

Il bollettino è stato emesso 5 minuti fa, alle 21:30 UTC
Vento 5 kt da est/nord-est
Temperature 28°C
Umidità 84%
Pressione 1009 hPa
Visibilità 10 km o più
Poco nuvoloso ad un'altezza di 2000 ft

METAR: VHHH 202130Z 06005KT 9999 FEW020 28/25 Q1009 NOSIG

Ora: 05:35 (21:35 UTC)

Previsione

Il bollettino è stato emesso 4 ore e 35 minuti fa, alle 17:00 UTC
Previsione valida dal 20 alle 18 UTC al 21 alle 24 UTC
Vento 10 kt da sud-ovest
Visibilità 10 km o più
Poco nuvoloso ad un'altezza di 2500 ft
Temporaneamente
dal 20 alle 18 UTC al 20 alle 24 UTC
Vento 5 kt da direzioni variabili
Temporaneamente
dal 21 alle 10 UTC al 21 alle 18 UTC
Vento 5 kt da direzioni variabili

TAF: VHHH 201700Z 2018/2124 22010KT 9999 FEW025 TX34/2106Z TN28/2021Z TN28/2121Z TEMPO 2018/2024 VRB05KT TEMPO 2110/2118 VRB05KT

Osservazioni e previsioni meteorologiche di più di 4000 aeroporti (messaggi METAR e TAF).

Le stazioni disponibili sono rappresentate dai dischi gialli e rossi sulla carta.

Puntare il mouse per vedere il nome della stazione.

Clicca sopra per visualizzare le osservazioni e previsioni meteorologiche.

Per cambiare la mappa : fare clic sui pulsanti verdi con una croce nera per ingrandire, il pulsante verde con un trattino per diminuire, o sulla freccia verde per le mappe adiacenti.


METAR-TAF: